createdAt,value
2018-02-16T00:00:38.022Z,0
2018-02-16T00:01:37.699Z,0
2018-02-16T00:02:37.714Z,0
2018-02-16T00:03:38.195Z,0
2018-02-16T00:04:38.183Z,0
2018-02-16T00:05:37.664Z,0
2018-02-16T00:06:37.658Z,0
2018-02-16T00:07:37.895Z,0
2018-02-16T00:08:37.895Z,0
2018-02-16T00:09:37.889Z,0
2018-02-16T00:10:38.126Z,0
2018-02-16T00:11:37.628Z,0
2018-02-16T00:12:37.864Z,0
2018-02-16T00:13:38.118Z,0
2018-02-16T00:14:38.107Z,0
2018-02-16T00:15:37.641Z,0
2018-02-16T00:16:37.585Z,0
2018-02-16T00:17:37.836Z,0
2018-02-16T00:18:38.067Z,0
2018-02-16T00:19:37.812Z,0
2018-02-16T00:20:37.861Z,0
2018-02-16T00:21:38.052Z,0
2018-02-16T00:22:37.534Z,0
2018-02-16T00:23:38.036Z,0
2018-02-16T00:24:38.024Z,0
2018-02-16T00:25:37.773Z,0
2018-02-16T00:26:37.754Z,0
2018-02-16T00:27:38.003Z,0
2018-02-16T00:28:37.748Z,0
2018-02-16T00:29:37.739Z,0
2018-02-16T00:30:37.486Z,0
2018-02-16T00:31:37.995Z,0
2018-02-16T00:32:37.721Z,0
2018-02-16T00:33:37.707Z,0
2018-02-16T00:34:37.970Z,0
2018-02-16T00:35:38.036Z,0
2018-02-16T00:36:39.790Z,0
2018-02-16T00:37:37.433Z,0
2018-02-16T00:38:37.418Z,0
2018-02-16T00:39:37.919Z,0
2018-02-16T00:40:37.732Z,0
2018-02-16T00:41:37.406Z,0
2018-02-16T00:42:37.404Z,0
2018-02-16T00:43:37.388Z,0
2018-02-16T00:44:37.371Z,0
2018-02-16T00:45:37.647Z,0
2018-02-16T00:46:37.613Z,0
2018-02-16T00:47:37.702Z,0
2018-02-16T00:48:37.606Z,0
2018-02-16T00:49:37.641Z,0
2018-02-16T00:50:37.095Z,0
2018-02-16T00:51:37.870Z,0
2018-02-16T00:52:37.610Z,0
2018-02-16T00:53:37.819Z,0
2018-02-16T00:54:37.562Z,0
2018-02-16T00:55:37.621Z,0
2018-02-16T00:56:37.298Z,0
2018-02-16T00:57:37.535Z,0
2018-02-16T00:58:37.521Z,0
2018-02-16T00:59:37.789Z,0
2018-02-16T01:00:37.835Z,0
2018-02-16T01:01:37.514Z,0
2018-02-16T01:02:37.494Z,0
2018-02-16T01:03:37.494Z,0
2018-02-16T01:04:37.501Z,0
2018-02-16T01:05:37.236Z,0
2018-02-16T01:06:39.348Z,0
2018-02-16T01:07:37.503Z,0
2018-02-16T01:08:37.716Z,0
2018-02-16T01:09:37.454Z,0
2018-02-16T01:10:37.193Z,0
2018-02-16T01:11:37.193Z,0
2018-02-16T01:12:37.433Z,0
2018-02-16T01:13:37.186Z,0
2018-02-16T01:14:37.693Z,0
2018-02-16T01:15:37.438Z,0
2018-02-16T01:16:37.677Z,0
2018-02-16T01:17:37.675Z,0
2018-02-16T01:18:36.902Z,0
2018-02-16T01:19:37.208Z,0
2018-02-16T01:20:37.367Z,0
2018-02-16T01:21:37.107Z,0
2018-02-16T01:22:36.859Z,0
2018-02-16T01:23:37.608Z,0
2018-02-16T01:24:37.338Z,0
2018-02-16T01:25:37.590Z,0
2018-02-16T01:26:37.327Z,0
2018-02-16T01:27:36.824Z,0
2018-02-16T01:28:37.308Z,0
2018-02-16T01:29:37.316Z,0
2018-02-16T01:30:37.375Z,0
2018-02-16T01:31:37.289Z,0
2018-02-16T01:32:37.284Z,0
2018-02-16T01:33:37.024Z,0
2018-02-16T01:34:37.014Z,0
2018-02-16T01:35:37.259Z,0
2018-02-16T01:36:37.501Z,0
2018-02-16T01:37:37.284Z,0
2018-02-16T01:38:37.497Z,0
2018-02-16T01:39:37.487Z,0
2018-02-16T01:40:37.554Z,0
2018-02-16T01:41:37.471Z,0
2018-02-16T01:42:37.003Z,0
2018-02-16T01:43:37.217Z,0
2018-02-16T01:44:37.461Z,0
2018-02-16T01:45:37.038Z,0
2018-02-16T01:46:37.500Z,0
2018-02-16T01:47:36.933Z,0
2018-02-16T01:48:37.167Z,0
2018-02-16T01:49:37.168Z,0
2018-02-16T01:50:37.151Z,0
2018-02-16T01:51:37.693Z,0
2018-02-16T01:52:37.148Z,0
2018-02-16T01:53:37.144Z,0
2018-02-16T01:54:37.141Z,0
2018-02-16T01:55:37.155Z,0
2018-02-16T01:56:36.861Z,0
2018-02-16T01:57:37.362Z,0
2018-02-16T01:58:36.840Z,0
2018-02-16T01:59:37.338Z,0
2018-02-16T02:00:37.143Z,0
2018-02-16T02:01:37.329Z,0
2018-02-16T02:02:36.820Z,0
2018-02-16T02:03:37.316Z,0
2018-02-16T02:04:37.051Z,0
2018-02-16T02:05:36.891Z,0
2018-02-16T02:06:40.290Z,0
2018-02-16T02:07:37.286Z,0
2018-02-16T02:08:37.024Z,0
2018-02-16T02:09:37.014Z,0
2018-02-16T02:10:37.022Z,0
2018-02-16T02:11:37.273Z,0
2018-02-16T02:12:36.742Z,0
2018-02-16T02:13:37.260Z,0
2018-02-16T02:14:36.472Z,0
2018-02-16T02:15:36.730Z,0
2018-02-16T02:16:37.223Z,0
2018-02-16T02:17:37.757Z,0
2018-02-16T02:18:36.963Z,0
2018-02-16T02:19:36.956Z,0
2018-02-16T02:20:37.334Z,0
2018-02-16T02:21:37.202Z,0
2018-02-16T02:22:36.973Z,0
2018-02-16T02:23:36.415Z,0
2018-02-16T02:24:36.666Z,0
2018-02-16T02:25:36.977Z,0
2018-02-16T02:26:37.149Z,0
2018-02-16T02:27:36.643Z,0
2018-02-16T02:28:36.889Z,0
2018-02-16T02:29:36.877Z,0
2018-02-16T02:30:36.686Z,0
2018-02-16T02:31:37.135Z,0
2018-02-16T02:32:36.865Z,0
2018-02-16T02:33:36.597Z,0
2018-02-16T02:34:36.856Z,0
2018-02-16T02:35:37.194Z,0
2018-02-16T02:36:37.088Z,0
2018-02-16T02:37:38.351Z,0
2018-02-16T02:38:37.069Z,0
2018-02-16T02:39:36.810Z,0
2018-02-16T02:40:36.564Z,0
2018-02-16T02:41:36.787Z,0
2018-02-16T02:42:37.039Z,0
2018-02-16T02:43:37.035Z,0
2018-02-16T02:44:36.886Z,0
2018-02-16T02:45:37.099Z,0
2018-02-16T02:46:36.775Z,0
2018-02-16T02:47:37.007Z,0
2018-02-16T02:48:37.009Z,0
2018-02-16T02:49:36.986Z,0
2018-02-16T02:50:36.788Z,0
2018-02-16T02:51:36.728Z,0
2018-02-16T02:52:36.981Z,0
2018-02-16T02:53:36.958Z,0
2018-02-16T02:54:36.451Z,0
2018-02-16T02:55:36.473Z,0
2018-02-16T02:56:36.685Z,0
2018-02-16T02:57:36.437Z,0
2018-02-16T02:58:36.923Z,0
2018-02-16T02:59:36.968Z,0
2018-02-16T03:00:36.984Z,0
2018-02-16T03:01:36.393Z,0
2018-02-16T03:02:36.658Z,0
2018-02-16T03:03:36.640Z,0
2018-02-16T03:04:36.880Z,0
2018-02-16T03:05:37.216Z,0
2018-02-16T03:06:36.865Z,0
2018-02-16T03:07:38.473Z,0
2018-02-16T03:08:36.620Z,0
2018-02-16T03:09:36.843Z,0
2018-02-16T03:10:36.148Z,0
2018-02-16T03:11:36.585Z,0
2018-02-16T03:12:36.329Z,0
2018-02-16T03:13:36.568Z,0
2018-02-16T03:14:36.304Z,0
2018-02-16T03:15:36.625Z,0
2018-02-16T03:16:36.286Z,0
2018-02-16T03:17:36.782Z,0
2018-02-16T03:18:36.778Z,0
2018-02-16T03:19:36.782Z,0
2018-02-16T03:20:36.285Z,0
2018-02-16T03:21:36.517Z,0
2018-02-16T03:22:36.511Z,0
2018-02-16T03:23:36.743Z,0
2018-02-16T03:24:35.984Z,0
2018-02-16T03:25:36.518Z,0
2018-02-16T03:26:36.473Z,0
2018-02-16T03:27:36.475Z,0
2018-02-16T03:28:36.451Z,0
2018-02-16T03:29:36.191Z,0
2018-02-16T03:30:36.189Z,0
2018-02-16T03:31:36.697Z,0
2018-02-16T03:32:36.695Z,0
2018-02-16T03:33:36.169Z,0
2018-02-16T03:34:36.410Z,0
2018-02-16T03:35:36.149Z,0
2018-02-16T03:36:36.406Z,0
2018-02-16T03:37:39.596Z,0
2018-02-16T03:38:36.396Z,0
2018-02-16T03:39:36.620Z,0
2018-02-16T03:40:36.618Z,0
2018-02-16T03:41:36.364Z,0
2018-02-16T03:42:36.618Z,0
2018-02-16T03:43:36.600Z,0
2018-02-16T03:44:36.594Z,0
2018-02-16T03:45:36.331Z,0
2018-02-16T03:46:36.601Z,0
2018-02-16T03:47:36.330Z,0
2018-02-16T03:48:36.060Z,0
2018-02-16T03:49:36.555Z,0
2018-02-16T03:50:36.594Z,0
2018-02-16T03:51:36.281Z,0
2018-02-16T03:52:36.029Z,0
2018-02-16T03:53:36.025Z,0
2018-02-16T03:54:36.522Z,0
2018-02-16T03:55:36.347Z,0
2018-02-16T03:56:36.254Z,0
2018-02-16T03:57:36.255Z,0
2018-02-16T03:58:36.489Z,0
2018-02-16T03:59:36.230Z,0
2018-02-16T04:00:36.532Z,0
2018-02-16T04:01:35.968Z,0
2018-02-16T04:02:36.211Z,0
2018-02-16T04:03:35.949Z,0
2018-02-16T04:04:36.450Z,0
2018-02-16T04:05:36.060Z,0
2018-02-16T04:06:36.174Z,0
2018-02-16T04:07:36.167Z,0
2018-02-16T04:08:36.110Z,0
2018-02-16T04:09:35.901Z,0
2018-02-16T04:10:36.439Z,0
2018-02-16T04:11:36.138Z,0
2018-02-16T04:12:36.133Z,0
2018-02-16T04:13:36.206Z,0
2018-02-16T04:14:36.119Z,0
2018-02-16T04:15:36.147Z,0
2018-02-16T04:16:35.851Z,0
2018-02-16T04:17:36.102Z,0
2018-02-16T04:18:35.845Z,0
2018-02-16T04:19:36.330Z,0
2018-02-16T04:20:36.378Z,0
2018-02-16T04:21:36.315Z,0
2018-02-16T04:22:35.806Z,0
2018-02-16T04:23:36.058Z,0
2018-02-16T04:24:36.302Z,0
2018-02-16T04:25:36.056Z,0
2018-02-16T04:26:35.794Z,0
2018-02-16T04:27:36.029Z,0
2018-02-16T04:28:36.273Z,0
2018-02-16T04:29:35.771Z,0
2018-02-16T04:30:36.030Z,0
2018-02-16T04:31:36.248Z,0
2018-02-16T04:32:35.994Z,0
2018-02-16T04:33:35.729Z,0
2018-02-16T04:34:36.244Z,0
2018-02-16T04:35:35.715Z,0
2018-02-16T04:36:35.962Z,0
2018-02-16T04:37:35.956Z,0
2018-02-16T04:38:37.204Z,0
2018-02-16T04:39:36.189Z,0
2018-02-16T04:40:35.759Z,0
2018-02-16T04:41:35.932Z,0
2018-02-16T04:42:36.169Z,0
2018-02-16T04:43:35.939Z,0
2018-02-16T04:44:35.897Z,0
2018-02-16T04:45:35.641Z,0
2018-02-16T04:46:36.134Z,0
2018-02-16T04:47:36.138Z,0
2018-02-16T04:48:35.618Z,0
2018-02-16T04:49:35.615Z,0
2018-02-16T04:50:35.657Z,0
2018-02-16T04:51:36.111Z,0
2018-02-16T04:52:35.848Z,0
2018-02-16T04:53:39.342Z,0
2018-02-16T04:54:36.092Z,0
2018-02-16T04:55:35.834Z,0
2018-02-16T04:56:35.569Z,0
2018-02-16T04:57:36.069Z,0
2018-02-16T04:58:35.550Z,0
2018-02-16T04:59:35.891Z,0
2018-02-16T05:00:35.652Z,0
2018-02-16T05:01:35.821Z,0
2018-02-16T05:02:35.516Z,0
2018-02-16T05:03:36.028Z,0
2018-02-16T05:04:36.014Z,0
2018-02-16T05:05:35.516Z,0
2018-02-16T05:06:35.243Z,0
2018-02-16T05:07:36.003Z,0
2018-02-16T05:08:35.474Z,0
2018-02-16T05:09:35.727Z,0
2018-02-16T05:10:35.750Z,0
2018-02-16T05:11:35.729Z,0
2018-02-16T05:12:35.753Z,0
2018-02-16T05:13:35.191Z,0
2018-02-16T05:14:35.684Z,0
2018-02-16T05:15:35.681Z,0
2018-02-16T05:16:35.933Z,0
2018-02-16T05:17:35.159Z,0
2018-02-16T05:18:35.669Z,0
2018-02-16T05:19:35.927Z,0
2018-02-16T05:20:35.719Z,0
2018-02-16T05:21:35.382Z,0
2018-02-16T05:22:35.374Z,0
2018-02-16T05:23:35.619Z,0
2018-02-16T05:24:35.824Z,0
2018-02-16T05:25:35.357Z,0
2018-02-16T05:26:35.609Z,0
2018-02-16T05:27:35.604Z,0
2018-02-16T05:28:35.581Z,0
2018-02-16T05:29:35.586Z,0
2018-02-16T05:30:35.125Z,0
2018-02-16T05:31:35.315Z,0
2018-02-16T05:32:35.556Z,0
2018-02-16T05:33:35.552Z,0
2018-02-16T05:34:35.806Z,0
2018-02-16T05:35:35.537Z,0
2018-02-16T05:36:35.022Z,0
2018-02-16T05:37:35.273Z,0
2018-02-16T05:38:35.267Z,0
2018-02-16T05:39:36.867Z,0
2018-02-16T05:40:35.501Z,0
2018-02-16T05:41:35.744Z,0
2018-02-16T05:42:35.227Z,0
2018-02-16T05:43:35.483Z,0
2018-02-16T05:44:35.465Z,0
2018-02-16T05:45:35.833Z,0
2018-02-16T05:46:35.465Z,0
2018-02-16T05:47:35.698Z,0
2018-02-16T05:48:35.438Z,0
2018-02-16T05:49:34.966Z,0
2018-02-16T05:50:35.485Z,0
2018-02-16T05:51:35.431Z,0
2018-02-16T05:52:35.414Z,0
2018-02-16T05:53:35.404Z,0
2018-02-16T05:54:35.395Z,0
2018-02-16T05:55:35.427Z,0
2018-02-16T05:56:35.633Z,0
2018-02-16T05:57:35.628Z,0
2018-02-16T05:58:35.378Z,0
2018-02-16T05:59:35.619Z,0
2018-02-16T06:00:34.971Z,0
2018-02-16T06:01:35.600Z,0
2018-02-16T06:02:35.336Z,4
2018-02-16T06:03:35.647Z,4
2018-02-16T06:04:36.128Z,0
2018-02-16T06:05:35.834Z,0
2018-02-16T06:06:35.055Z,4
2018-02-16T06:07:35.058Z,0
2018-02-16T06:08:35.549Z,4
2018-02-16T06:09:35.540Z,4
2018-02-16T06:10:35.332Z,4
2018-02-16T06:11:35.523Z,8
2018-02-16T06:12:35.268Z,12
2018-02-16T06:13:35.014Z,12
2018-02-16T06:14:34.997Z,12
2018-02-16T06:15:35.240Z,16
2018-02-16T06:16:35.486Z,16
2018-02-16T06:17:35.230Z,20
2018-02-16T06:18:35.231Z,20
2018-02-16T06:19:35.222Z,20
2018-02-16T06:20:35.803Z,24
2018-02-16T06:21:35.201Z,28
2018-02-16T06:22:35.193Z,32
2018-02-16T06:23:35.184Z,36
2018-02-16T06:24:35.434Z,44
2018-02-16T06:25:35.142Z,44
2018-02-16T06:26:35.415Z,52
2018-02-16T06:27:35.154Z,56
2018-02-16T06:28:35.406Z,64
2018-02-16T06:29:35.400Z,68
2018-02-16T06:30:35.170Z,72
2018-02-16T06:31:34.889Z,80
2018-02-16T06:32:35.132Z,88
2018-02-16T06:33:35.402Z,92
2018-02-16T06:34:35.141Z,104
2018-02-16T06:35:35.184Z,112
2018-02-16T06:36:35.098Z,120
2018-02-16T06:37:34.835Z,124
2018-02-16T06:38:35.080Z,124
2018-02-16T06:39:35.341Z,128
2018-02-16T06:40:36.253Z,144
2018-02-16T06:41:34.560Z,160
2018-02-16T06:42:35.057Z,172
2018-02-16T06:43:34.539Z,188
2018-02-16T06:44:35.290Z,196
2018-02-16T06:45:35.398Z,204
2018-02-16T06:46:35.020Z,216
2018-02-16T06:47:35.017Z,228
2018-02-16T06:48:35.011Z,228
2018-02-16T06:49:35.010Z,232
2018-02-16T06:50:35.105Z,240
2018-02-16T06:51:34.738Z,256
2018-02-16T06:52:34.987Z,264
2018-02-16T06:53:35.235Z,268
2018-02-16T06:54:34.976Z,268
2018-02-16T06:55:35.106Z,272
2018-02-16T06:56:34.959Z,288
2018-02-16T06:57:34.962Z,316
2018-02-16T06:58:34.941Z,356
2018-02-16T06:59:34.688Z,416
2018-02-16T07:00:34.781Z,476
2018-02-16T07:01:34.685Z,532
2018-02-16T07:02:34.927Z,572
2018-02-16T07:03:35.174Z,600
2018-02-16T07:04:34.921Z,628
2018-02-16T07:05:34.964Z,668
2018-02-16T07:06:34.886Z,732
2018-02-16T07:07:34.968Z,776
2018-02-16T07:08:34.913Z,828
2018-02-16T07:09:35.150Z,876
2018-02-16T07:10:34.641Z,892
2018-02-16T07:11:35.112Z,908
2018-02-16T07:12:34.594Z,912
2018-02-16T07:13:34.841Z,912
2018-02-16T07:14:34.844Z,928
2018-02-16T07:15:35.161Z,936
2018-02-16T07:16:34.569Z,944
2018-02-16T07:17:35.067Z,932
2018-02-16T07:18:35.062Z,900
2018-02-16T07:19:34.553Z,868
2018-02-16T07:20:34.541Z,848
2018-02-16T07:21:35.085Z,860
2018-02-16T07:22:34.785Z,876
2018-02-16T07:23:34.536Z,888
2018-02-16T07:24:35.033Z,896
2018-02-16T07:25:37.716Z,928
2018-02-16T07:26:34.751Z,968
2018-02-16T07:27:34.749Z,1008
2018-02-16T07:28:34.996Z,1028
2018-02-16T07:29:34.738Z,1044
2018-02-16T07:30:34.794Z,1052
2018-02-16T07:31:34.726Z,1076
2018-02-16T07:32:34.728Z,1092
2018-02-16T07:33:34.723Z,1132
2018-02-16T07:34:34.201Z,1176
2018-02-16T07:35:35.053Z,1188
2018-02-16T07:36:34.733Z,1172
2018-02-16T07:37:34.941Z,1164
2018-02-16T07:38:34.427Z,1184
2018-02-16T07:39:34.670Z,1232
2018-02-16T07:40:34.592Z,1300
2018-02-16T07:41:34.698Z,1344
2018-02-16T07:42:34.939Z,1352
2018-02-16T07:43:34.573Z,1316
2018-02-16T07:44:34.788Z,1272
2018-02-16T07:45:35.247Z,1272
2018-02-16T07:46:34.908Z,1316
2018-02-16T07:47:34.798Z,1344
2018-02-16T07:48:34.771Z,1312
2018-02-16T07:49:34.863Z,1244
2018-02-16T07:50:34.896Z,1160
2018-02-16T07:51:34.851Z,1120
2018-02-16T07:52:34.590Z,1160
2018-02-16T07:53:34.580Z,1180
2018-02-16T07:54:34.323Z,1140
2018-02-16T07:55:34.618Z,1072
2018-02-16T07:56:34.614Z,1036
2018-02-16T07:57:34.303Z,1048
2018-02-16T07:58:34.297Z,1108
2018-02-16T07:59:34.798Z,1200
2018-02-16T08:00:34.555Z,1284
2018-02-16T08:01:34.527Z,1336
2018-02-16T08:02:34.528Z,1376
2018-02-16T08:03:34.767Z,1392
2018-02-16T08:04:34.778Z,1384
2018-02-16T08:05:34.559Z,1376
2018-02-16T08:06:34.278Z,1360
2018-02-16T08:07:34.307Z,1364
2018-02-16T08:08:34.238Z,1360
2018-02-16T08:09:34.748Z,1368
2018-02-16T08:10:34.503Z,1472
2018-02-16T08:11:34.804Z,1612
2018-02-16T08:12:34.474Z,1700
2018-02-16T08:13:34.469Z,1712
2018-02-16T08:14:34.700Z,1656
2018-02-16T08:15:34.191Z,1592
2018-02-16T08:16:34.697Z,1532
2018-02-16T08:17:34.190Z,1480
2018-02-16T08:18:34.701Z,1420
2018-02-16T08:19:34.164Z,1356
2018-02-16T08:20:34.726Z,1288
2018-02-16T08:21:34.170Z,1232
2018-02-16T08:22:34.655Z,1204
2018-02-16T08:23:34.392Z,1200
2018-02-16T08:24:34.138Z,1184
2018-02-16T08:25:34.141Z,1172
2018-02-16T08:26:34.678Z,1176
2018-02-16T08:27:34.633Z,1212
2018-02-16T08:28:33.856Z,1300
2018-02-16T08:29:34.632Z,1376
2018-02-16T08:30:34.462Z,1412
2018-02-16T08:31:34.601Z,1448
2018-02-16T08:32:34.353Z,1484
2018-02-16T08:33:34.338Z,1512
2018-02-16T08:34:34.329Z,1520
2018-02-16T08:35:34.387Z,1540
2018-02-16T08:36:34.582Z,1540
2018-02-16T08:37:34.067Z,1576
2018-02-16T08:39:06.446Z,1676
2018-02-16T08:39:34.340Z,1688
2018-02-16T08:40:34.091Z,1652
2018-02-16T08:41:35.279Z,1636
2018-02-16T08:42:34.532Z,1688
2018-02-16T08:43:34.278Z,1764
2018-02-16T08:44:34.323Z,1836
2018-02-16T08:45:34.010Z,1900
2018-02-16T08:46:34.008Z,1912
2018-02-16T08:47:34.251Z,1940
2018-02-16T08:48:33.997Z,1992
2018-02-16T08:49:33.980Z,2020
2018-02-16T08:50:34.294Z,2080
2018-02-16T08:51:33.972Z,2052
2018-02-16T08:52:33.966Z,2036
2018-02-16T08:53:34.461Z,2060
2018-02-16T08:54:34.459Z,2108
2018-02-16T08:55:33.950Z,2088
2018-02-16T08:56:34.209Z,2128
2018-02-16T08:57:34.201Z,2200
2018-02-16T08:58:34.182Z,2352
2018-02-16T08:59:34.182Z,2448
2018-02-16T09:00:33.936Z,2424
2018-02-16T09:01:34.221Z,2476
2018-02-16T09:02:34.171Z,2628
2018-02-16T09:03:34.408Z,2728
2018-02-16T09:04:34.406Z,2704
2018-02-16T09:05:33.891Z,2648
2018-02-16T09:06:34.254Z,2584
2018-02-16T09:07:34.163Z,2588
2018-02-16T09:08:34.140Z,2676
2018-02-16T09:09:34.377Z,2784
2018-02-16T09:10:33.924Z,2892
2018-02-16T09:11:34.107Z,3080
2018-02-16T09:12:36.268Z,3152
2018-02-16T09:13:34.124Z,3288
2018-02-16T09:14:33.856Z,3508
2018-02-16T09:15:34.357Z,3736
2018-02-16T09:16:33.829Z,4092
2018-02-16T09:17:34.350Z,4416
2018-02-16T09:18:34.074Z,4588
2018-02-16T09:19:34.070Z,4684
2018-02-16T09:20:34.357Z,4808
2018-02-16T09:21:34.073Z,5132
2018-02-16T09:22:34.070Z,5328
2018-02-16T09:23:34.319Z,5396
2018-02-16T09:24:34.042Z,5424
2018-02-16T09:25:34.083Z,5448
2018-02-16T09:26:33.779Z,5596
2018-02-16T09:27:35.626Z,5612
2018-02-16T09:28:34.020Z,5504
2018-02-16T09:29:34.018Z,5620
2018-02-16T09:30:34.016Z,5904
2018-02-16T09:31:34.011Z,6080
2018-02-16T09:32:34.254Z,6200
2018-02-16T09:33:34.007Z,6176
2018-02-16T09:34:34.248Z,6040
2018-02-16T09:35:34.250Z,5828
2018-02-16T09:36:33.479Z,5740
2018-02-16T09:37:34.242Z,5748
2018-02-16T09:38:33.988Z,5756
2018-02-16T09:39:33.722Z,5860
2018-02-16T09:40:34.227Z,6456
2018-02-16T09:41:33.975Z,7016
2018-02-16T09:42:34.263Z,6320
2018-02-16T09:43:33.965Z,6512
2018-02-16T09:44:33.964Z,7152
2018-02-16T09:45:33.964Z,6500
2018-02-16T09:46:33.701Z,6492
2018-02-16T09:47:33.947Z,6500
2018-02-16T09:48:33.947Z,7316
2018-02-16T09:49:33.935Z,7844
2018-02-16T09:50:34.233Z,6904
2018-02-16T09:51:33.941Z,6756
2018-02-16T09:52:33.683Z,6600
2018-02-16T09:53:33.923Z,6508
2018-02-16T09:54:33.942Z,6636
2018-02-16T09:55:33.940Z,6500
2018-02-16T09:56:33.916Z,6592
2018-02-16T09:57:33.406Z,6776
2018-02-16T09:58:33.673Z,8336
2018-02-16T09:59:33.901Z,7220
2018-02-16T10:00:34.000Z,7876
2018-02-16T10:01:34.152Z,7224
2018-02-16T10:02:33.898Z,7236
2018-02-16T10:03:33.898Z,6972
2018-02-16T10:04:33.892Z,7064
2018-02-16T10:05:33.895Z,7184
2018-02-16T10:06:33.632Z,7228
2018-02-16T10:07:33.632Z,6260
2018-02-16T10:08:33.630Z,6088
2018-02-16T10:09:33.630Z,6044
2018-02-16T10:10:34.216Z,6024
2018-02-16T10:11:33.877Z,6100
2018-02-16T10:12:34.118Z,6252
2018-02-16T10:13:33.861Z,6128
2018-02-16T10:14:33.605Z,5916
2018-02-16T10:15:33.615Z,5792
2018-02-16T10:16:33.869Z,5952
2018-02-16T10:17:33.358Z,6240
2018-02-16T10:18:33.860Z,6940
2018-02-16T10:19:33.595Z,7424
2018-02-16T10:20:33.348Z,7424
2018-02-16T10:21:33.349Z,7244
2018-02-16T10:22:34.089Z,6872
2018-02-16T10:23:33.835Z,6636
2018-02-16T10:24:33.583Z,6456
2018-02-16T10:55:18.357Z,6668
2018-02-16T10:56:15.558Z,6620
2018-02-16T10:57:15.531Z,6800
2018-02-16T10:58:15.537Z,6820
2018-02-16T10:59:15.517Z,6672
2018-02-16T11:00:17.129Z,6492
2018-02-16T11:01:15.803Z,6024
2018-02-16T11:02:15.760Z,5520
2018-02-16T11:03:15.214Z,4956
2018-02-16T11:04:15.203Z,4600
2018-02-16T11:05:18.090Z,4380
2018-02-16T11:06:15.702Z,4304
2018-02-16T11:07:15.187Z,4188
2018-02-16T11:08:15.695Z,3864
2018-02-16T11:09:15.449Z,3572
2018-02-16T11:10:16.968Z,3376
2018-02-16T11:11:15.166Z,3260
2018-02-16T11:12:15.161Z,3148
2018-02-16T11:13:15.415Z,3116
2018-02-16T11:14:15.404Z,3136
2018-02-16T11:15:17.346Z,3180
2018-02-16T11:16:15.399Z,3348
2018-02-16T11:17:15.644Z,3512
2018-02-16T11:18:15.404Z,3600
2018-02-16T11:19:15.384Z,3676
2018-02-16T11:20:16.605Z,3784
2018-02-16T11:21:15.371Z,4020
2018-02-16T11:22:15.631Z,4408
2018-02-16T11:23:15.369Z,4712
2018-02-16T11:24:15.377Z,4868
2018-02-16T11:25:16.611Z,5056
2018-02-16T11:26:15.367Z,5312
2018-02-16T11:27:15.361Z,5528
2018-02-16T11:28:15.350Z,5720
2018-02-16T11:29:15.334Z,5908
2018-02-16T11:30:17.273Z,6024
2018-02-16T11:31:15.580Z,6092
2018-02-16T11:32:15.367Z,6232
2018-02-16T11:33:14.820Z,6212
2018-02-16T11:34:15.626Z,6156
2018-02-16T11:35:16.851Z,5980
2018-02-16T11:36:15.554Z,5744
2018-02-16T11:37:15.046Z,5664
2018-02-16T11:38:15.045Z,5500
2018-02-16T11:39:15.297Z,5632
2018-02-16T11:40:17.009Z,5712
2018-02-16T11:41:15.242Z,5808
2018-02-16T11:42:15.279Z,5900
2018-02-16T11:43:15.019Z,5908
2018-02-16T11:44:15.283Z,5864
2018-02-16T11:45:15.925Z,5940
2018-02-16T11:46:15.260Z,6164
2018-02-16T11:47:15.509Z,6392
2018-02-16T11:48:15.251Z,6580
2018-02-16T11:49:15.241Z,6708
2018-02-16T11:50:17.420Z,6748
2018-02-16T11:51:15.494Z,6764
2018-02-16T11:52:15.238Z,6880
2018-02-16T11:53:15.225Z,7008
2018-02-16T11:54:15.225Z,7192
2018-02-16T11:55:15.971Z,7268
2018-02-16T11:56:16.070Z,7252
2018-02-16T11:57:14.706Z,7292
2018-02-16T11:58:15.201Z,7324
2018-02-16T11:59:15.204Z,6612
2018-02-16T12:00:17.238Z,7096
2018-02-16T12:01:15.452Z,7112
2018-02-16T12:02:15.455Z,7572
2018-02-16T12:03:15.438Z,7356
2018-02-16T12:04:15.433Z,6540
2018-02-16T12:05:16.739Z,6096
2018-02-16T12:06:15.431Z,5432
2018-02-16T12:07:14.930Z,5132
2018-02-16T12:08:14.921Z,4980
2018-02-16T12:09:15.168Z,4912
2018-02-16T12:10:16.826Z,5860
2018-02-16T12:11:15.205Z,6316
2018-02-16T12:12:15.158Z,6280
2018-02-16T12:13:15.178Z,5592
2018-02-16T12:14:15.399Z,5164
2018-02-16T12:15:17.060Z,5992
2018-02-16T12:16:15.392Z,6208
2018-02-16T12:17:14.904Z,5688
2018-02-16T12:18:15.132Z,6264
2018-02-16T12:19:15.131Z,6348
2018-02-16T12:20:16.588Z,6388
2018-02-16T12:21:14.864Z,6508
2018-02-16T12:22:14.865Z,6592
2018-02-16T12:23:14.860Z,6768
2018-02-16T12:24:14.854Z,6968
2018-02-16T12:25:16.353Z,6948
2018-02-16T12:26:15.157Z,6456
2018-02-16T12:27:15.096Z,6012
2018-02-16T12:28:15.094Z,6204
2018-02-16T12:29:15.096Z,6360
2018-02-16T12:30:16.607Z,6496
2018-02-16T12:31:15.082Z,6484
2018-02-16T12:32:15.084Z,6440
2018-02-16T12:33:15.082Z,6464
2018-02-16T12:34:15.343Z,6512
2018-02-16T12:35:16.086Z,6544
2018-02-16T12:36:14.557Z,6600
2018-02-16T12:37:15.068Z,6548
2018-02-16T12:38:15.053Z,6368
2018-02-16T12:39:15.056Z,6352
2018-02-16T12:40:16.754Z,6240
2018-02-16T12:41:15.694Z,6084
2018-02-16T12:42:15.309Z,5904
2018-02-16T12:43:15.044Z,5668
2018-02-16T12:44:15.032Z,5456
2018-02-16T12:45:17.068Z,5276
2018-02-16T12:46:15.038Z,5040
2018-02-16T12:47:15.021Z,4764
2018-02-16T12:48:15.023Z,4504
2018-02-16T12:49:15.280Z,4340
2018-02-16T12:50:16.348Z,4332
2018-02-16T12:51:15.271Z,4408
2018-02-16T12:52:14.762Z,4456
2018-02-16T12:53:14.757Z,4544
2018-02-16T12:54:15.005Z,4756
2018-02-16T12:55:16.437Z,5048
2018-02-16T12:56:15.315Z,5300
2018-02-16T12:57:14.756Z,5600
2018-02-16T12:58:14.758Z,5940
2018-02-16T12:59:14.989Z,6100
2018-02-16T13:00:16.928Z,6060
2018-02-16T13:01:14.995Z,5924
2018-02-16T13:02:15.252Z,5816
2018-02-16T13:03:14.728Z,5828
2018-02-16T13:04:14.995Z,5764
2018-02-16T13:05:16.215Z,5728
2018-02-16T13:06:14.974Z,5744
2018-02-16T13:07:14.713Z,5816
2018-02-16T13:08:14.967Z,5872
2018-02-16T13:09:14.959Z,5920
2018-02-16T13:10:17.110Z,5876
2018-02-16T13:11:15.027Z,5868
2018-02-16T13:12:15.215Z,5896
2018-02-16T13:13:15.221Z,5872
2018-02-16T13:14:15.224Z,5800
2018-02-16T13:15:17.088Z,5724
2018-02-16T13:16:14.937Z,5568
2018-02-16T13:17:14.931Z,5392
2018-02-16T13:18:14.931Z,5296
2018-02-16T13:19:14.992Z,5196
2018-02-16T13:20:15.353Z,5148
2018-02-16T13:21:14.930Z,5032
2018-02-16T13:22:14.930Z,4960
2018-02-16T13:23:15.179Z,5108
2018-02-16T13:24:15.166Z,5308
2018-02-16T13:25:15.748Z,5424
2018-02-16T13:26:14.705Z,5516
2018-02-16T13:27:14.658Z,5596
2018-02-16T13:28:14.646Z,5632
2018-02-16T13:29:14.902Z,5560
2018-02-16T13:30:16.530Z,5436
2018-02-16T13:31:14.892Z,5260
2018-02-16T13:32:15.149Z,5096
2018-02-16T13:33:14.878Z,5044
2018-02-16T13:34:14.888Z,5192
2018-02-16T13:35:16.733Z,5312
2018-02-16T13:36:14.886Z,5192
2018-02-16T13:37:15.120Z,5160
2018-02-16T13:38:15.123Z,5144
2018-02-16T13:39:15.115Z,5132
2018-02-16T13:40:16.103Z,5008
2018-02-16T13:41:19.969Z,4812
2018-02-16T13:42:14.599Z,4672
2018-02-16T13:43:14.851Z,4460
2018-02-16T13:44:14.848Z,4208
2018-02-16T13:45:16.806Z,4016
2018-02-16T13:46:14.841Z,4504
2018-02-16T13:47:14.593Z,3972
2018-02-16T13:48:14.588Z,3868
2018-02-16T13:49:14.586Z,3932
2018-02-16T13:50:16.418Z,3948
2018-02-16T13:51:15.084Z,4116
2018-02-16T13:52:14.821Z,3944
2018-02-16T13:53:14.570Z,3964
2018-02-16T13:54:14.830Z,3984
2018-02-16T13:55:16.993Z,3996
2018-02-16T13:56:15.056Z,4012
2018-02-16T13:57:15.103Z,4076
2018-02-16T13:58:15.049Z,4096
2018-02-16T13:59:14.813Z,4148
2018-02-16T14:00:16.971Z,4184
2018-02-16T14:01:14.797Z,4212
2018-02-16T14:02:14.790Z,4228
2018-02-16T14:03:14.530Z,4308
2018-02-16T14:04:14.787Z,4340
2018-02-16T14:05:16.310Z,4292
2018-02-16T14:06:14.580Z,4264
2018-02-16T14:07:14.778Z,4196
2018-02-16T14:08:14.773Z,4192
2018-02-16T14:09:14.517Z,4072
2018-02-16T14:10:16.261Z,4004
2018-02-16T14:11:14.761Z,4024
2018-02-16T14:12:16.301Z,4200
2018-02-16T14:13:14.756Z,4408
2018-02-16T14:14:14.752Z,4576
2018-02-16T14:15:16.042Z,4680
2018-02-16T14:16:14.744Z,4800
2018-02-16T14:17:14.753Z,4752
2018-02-16T14:18:14.812Z,4660
2018-02-16T14:19:14.735Z,4604
2018-02-16T14:20:15.416Z,4496
2018-02-16T14:21:14.740Z,4392
2018-02-16T14:22:14.724Z,4288
2018-02-16T14:23:14.465Z,4136
2018-02-16T14:24:14.971Z,3996
2018-02-16T14:25:16.383Z,4040
2018-02-16T14:26:14.471Z,4068
2018-02-16T14:27:16.074Z,4104
2018-02-16T14:28:14.709Z,4108